Terminal Aerodrome Forecast
Issued by NWS Corpus Christi, TX

Home | Current Version | Previous Version | Text Only | Print | Product List | Glossary On
Versions: 1 2 3 4 5 6 7 8 9 10 11 12 13 14 15 16 17 18 19 20 21 22
000
FTUS44 KCRP 281720
TAFVCT
TAF
KVCT 281720Z 2818/2918 34016G22KT P6SM SCT025 BKN035
      TEMPO 2818/2822 BKN025
     FM290200 33009KT P6SM SCT015 BKN045=

USA.gov is the U.S. government's official web portal to all federal, state and local government web resources and services.